sensor_id;sensor_type;location;lat;lon;timestamp;pressure;altitude;pressure_sealevel;temperature
75049;BMP280;63803;53.120;8.764;2023-02-15T00:01:24;103085.97;;;22.60
75049;BMP280;63803;53.120;8.764;2023-02-15T00:03:50;103085.97;;;22.60
75049;BMP280;63803;53.120;8.764;2023-02-15T00:06:16;103086.13;;;22.62
75049;BMP280;63803;53.120;8.764;2023-02-15T00:08:42;103088.00;;;22.60
75049;BMP280;63803;53.120;8.764;2023-02-15T00:11:10;103079.00;;;22.59
75049;BMP280;63803;53.120;8.764;2023-02-15T00:13:36;103080.47;;;22.60
75049;BMP280;63803;53.120;8.764;2023-02-15T00:16:06;103088.75;;;22.60
75049;BMP280;63803;53.120;8.764;2023-02-15T00:18:32;103085.97;;;22.60
75049;BMP280;63803;53.120;8.764;2023-02-15T00:20:58;103083.22;;;22.60
75049;BMP280;63803;53.120;8.764;2023-02-15T00:23:24;103088.00;;;22.60
75049;BMP280;63803;53.120;8.764;2023-02-15T00:25:51;103081.66;;;22.57
75049;BMP280;63803;53.120;8.764;2023-02-15T00:28:16;103079.00;;;22.59
75049;BMP280;63803;53.120;8.764;2023-02-15T00:30:41;103077.59;;;22.58
75049;BMP280;63803;53.120;8.764;2023-02-15T00:33:07;103073.47;;;22.59
75049;BMP280;63803;53.120;8.764;2023-02-15T00:35:32;103066.53;;;22.58
75049;BMP280;63803;53.120;8.764;2023-02-15T00:37:57;103069.41;;;22.60
75049;BMP280;63803;53.120;8.764;2023-02-15T00:40:23;103055.59;;;22.60
75049;BMP280;63803;53.120;8.764;2023-02-15T00:42:48;103056.16;;;22.59
75049;BMP280;63803;53.120;8.764;2023-02-15T00:45:14;103048.59;;;22.59
75049;BMP280;63803;53.120;8.764;2023-02-15T00:47:39;103043.06;;;22.59
75049;BMP280;63803;53.120;8.764;2023-02-15T00:50:05;103045.00;;;22.57
75049;BMP280;63803;53.120;8.764;2023-02-15T00:52:31;103044.44;;;22.58
75049;BMP280;63803;53.120;8.764;2023-02-15T00:54:56;103044.44;;;22.58
75049;BMP280;63803;53.120;8.764;2023-02-15T00:57:21;103042.25;;;22.57
75049;BMP280;63803;53.120;8.764;2023-02-15T00:59:47;103046.56;;;22.60
75049;BMP280;63803;53.120;8.764;2023-02-15T01:02:12;103039.00;;;22.60
75049;BMP280;63803;53.120;8.764;2023-02-15T01:04:38;103033.38;;;22.58
75049;BMP280;63803;53.120;8.764;2023-02-15T01:07:03;103038.91;;;22.58
75049;BMP280;63803;53.120;8.764;2023-02-15T01:09:29;103033.38;;;22.58
75049;BMP280;63803;53.120;8.764;2023-02-15T01:11:54;103030.63;;;22.58
75049;BMP280;63803;53.120;8.764;2023-02-15T01:14:20;103029.25;;;22.59
75049;BMP280;63803;53.120;8.764;2023-02-15T01:16:45;103029.97;;;22.60
75049;BMP280;63803;53.120;8.764;2023-02-15T01:19:11;103032.03;;;22.59
75049;BMP280;63803;53.120;8.764;2023-02-15T01:21:36;103033.63;;;22.62
75049;BMP280;63803;53.120;8.764;2023-02-15T01:24:02;103032.41;;;22.65
75049;BMP280;63803;53.120;8.764;2023-02-15T01:26:27;103024.25;;;22.67
75049;BMP280;63803;53.120;8.764;2023-02-15T01:28:53;103024.97;;;22.68
75049;BMP280;63803;53.120;8.764;2023-02-15T01:31:20;103022.22;;;22.68
75049;BMP280;63803;53.120;8.764;2023-02-15T01:33:48;103018.72;;;22.67
75049;BMP280;63803;53.120;8.764;2023-02-15T01:36:14;103016.69;;;22.68
75049;BMP280;63803;53.120;8.764;2023-02-15T01:38:39;103009.13;;;22.68
75049;BMP280;63803;53.120;8.764;2023-02-15T01:41:05;103014.63;;;22.68
75049;BMP280;63803;53.120;8.764;2023-02-15T01:46:22;103014.63;;;22.68
75049;BMP280;63803;53.120;8.764;2023-02-15T01:48:49;103015.34;;;22.69
75049;BMP280;63803;53.120;8.764;2023-02-15T01:51:19;103009.13;;;22.68
75049;BMP280;63803;53.120;8.764;2023-02-15T01:57:16;103004.91;;;22.67
75049;BMP280;63803;53.120;8.764;2023-02-15T01:59:46;103002.28;;;22.69
75049;BMP280;63803;53.120;8.764;2023-02-15T02:02:13;102996.03;;;22.69
75049;BMP280;63803;53.120;8.764;2023-02-15T02:04:44;102999.53;;;22.69
75049;BMP280;63803;53.120;8.764;2023-02-15T02:07:12;103003.59;;;22.68
75049;BMP280;63803;53.120;8.764;2023-02-15T02:09:39;102997.47;;;22.70
75049;BMP280;63803;53.120;8.764;2023-02-15T02:12:05;102999.63;;;22.71
75049;BMP280;63803;53.120;8.764;2023-02-15T02:14:30;103000.25;;;22.70
75049;BMP280;63803;53.120;8.764;2023-02-15T02:23:07;102981.84;;;22.74
75049;BMP280;63803;53.120;8.764;2023-02-15T02:36:35;102977.66;;;22.73
75049;BMP280;63803;53.120;8.764;2023-02-15T02:44:49;102970.78;;;22.74
75049;BMP280;63803;53.120;8.764;2023-02-15T02:47:24;102970.19;;;22.76
75049;BMP280;63803;53.120;8.764;2023-02-15T02:49:52;102968.00;;;22.74
75049;BMP280;63803;53.120;8.764;2023-02-15T02:52:45;102966.00;;;22.75
75049;BMP280;63803;53.120;8.764;2023-02-15T02:55:19;102981.25;;;22.76
75049;BMP280;63803;53.120;8.764;2023-02-15T02:57:54;102969.63;;;22.77
75049;BMP280;63803;53.120;8.764;2023-02-15T03:00:21;102966.84;;;22.77
75049;BMP280;63803;53.120;8.764;2023-02-15T03:02:51;102961.31;;;22.77
75049;BMP280;63803;53.120;8.764;2023-02-15T03:05:21;102963.38;;;22.77
75049;BMP280;63803;53.120;8.764;2023-02-15T03:07:49;102960.59;;;22.77
75049;BMP280;63803;53.120;8.764;2023-02-15T03:10:18;102948.84;;;22.76
75049;BMP280;63803;53.120;8.764;2023-02-15T03:12:45;102946.06;;;22.76
75049;BMP280;63803;53.120;8.764;2023-02-15T03:15:20;102946.66;;;22.75
75049;BMP280;63803;53.120;8.764;2023-02-15T03:17:51;102941.13;;;22.75
75049;BMP280;63803;53.120;8.764;2023-02-15T03:20:24;102938.38;;;22.75
75049;BMP280;63803;53.120;8.764;2023-02-15T03:22:57;102934.28;;;22.76
75049;BMP280;63803;53.120;8.764;2023-02-15T03:25:32;102936.31;;;22.75
75049;BMP280;63803;53.120;8.764;2023-02-15T03:28:02;102932.25;;;22.76
75049;BMP280;63803;53.120;8.764;2023-02-15T03:30:29;102933.69;;;22.77
75049;BMP280;63803;53.120;8.764;2023-02-15T03:32:56;102932.25;;;22.76
75049;BMP280;63803;53.120;8.764;2023-02-15T03:35:25;102937.88;;;22.79
75049;BMP280;63803;53.120;8.764;2023-02-15T03:38:00;102937.88;;;22.79
75049;BMP280;63803;53.120;8.764;2023-02-15T03:40:28;102942.09;;;22.80
75049;BMP280;63803;53.120;8.764;2023-02-15T03:45:51;102939.22;;;22.77
75049;BMP280;63803;53.120;8.764;2023-02-15T03:48:34;102944.75;;;22.77
75049;BMP280;63803;53.120;8.764;2023-02-15T03:51:05;102948.84;;;22.76
75049;BMP280;63803;53.120;8.764;2023-02-15T03:53:50;102941.97;;;22.77
75049;BMP280;63803;53.120;8.764;2023-02-15T03:56:16;102939.09;;;22.75
75049;BMP280;63803;53.120;8.764;2023-02-15T03:58:42;102944.75;;;22.77
75049;BMP280;63803;53.120;8.764;2023-02-15T04:01:34;102943.31;;;22.76
75049;BMP280;63803;53.120;8.764;2023-02-15T04:04:21;102940.66;;;22.79
75049;BMP280;63803;53.120;8.764;2023-02-15T04:06:47;102936.91;;;22.74
75049;BMP280;63803;53.120;8.764;2023-02-15T04:09:13;102926.84;;;22.79
75049;BMP280;63803;53.120;8.764;2023-02-15T04:11:57;102922.16;;;22.81
75049;BMP280;63803;53.120;8.764;2023-02-15T04:14:22;102917.22;;;22.80
75049;BMP280;63803;53.120;8.764;2023-02-15T04:17:07;102908.91;;;22.80
75049;BMP280;63803;53.120;8.764;2023-02-15T04:19:33;102913.03;;;22.79
75049;BMP280;63803;53.120;8.764;2023-02-15T04:22:17;102915.16;;;22.80
75049;BMP280;63803;53.120;8.764;2023-02-15T04:25:01;102903.28;;;22.77
75049;BMP280;63803;53.120;8.764;2023-02-15T04:27:40;102907.00;;;22.82
75049;BMP280;63803;53.120;8.764;2023-02-15T04:30:06;102906.28;;;22.82
75049;BMP280;63803;53.120;8.764;2023-02-15T04:32:32;102905.56;;;22.81
75049;BMP280;63803;53.120;8.764;2023-02-15T04:34:57;102900.63;;;22.80
75049;BMP280;63803;53.120;8.764;2023-02-15T04:37:22;102909.16;;;22.84
75049;BMP280;63803;53.120;8.764;2023-02-15T04:39:48;102903.63;;;22.84
75049;BMP280;63803;53.120;8.764;2023-02-15T04:42:14;102899.56;;;22.85
75049;BMP280;63803;53.120;8.764;2023-02-15T04:44:40;102906.41;;;22.84
75049;BMP280;63803;53.120;8.764;2023-02-15T04:47:05;102898.00;;;22.82
75049;BMP280;63803;53.120;8.764;2023-02-15T04:49:30;102895.34;;;22.84
75049;BMP280;63803;53.120;8.764;2023-02-15T04:51:56;102901.47;;;22.82
75049;BMP280;63803;53.120;8.764;2023-02-15T04:54:21;102895.25;;;22.82
75049;BMP280;63803;53.120;8.764;2023-02-15T04:56:46;102891.03;;;22.81
75049;BMP280;63803;53.120;8.764;2023-02-15T04:59:12;102895.97;;;22.82
75049;BMP280;63803;53.120;8.764;2023-02-15T05:01:38;102895.97;;;22.82
75049;BMP280;63803;53.120;8.764;2023-02-15T05:04:03;102896.66;;;22.83
75049;BMP280;63803;53.120;8.764;2023-02-15T05:06:29;102898.00;;;22.82
75049;BMP280;63803;53.120;8.764;2023-02-15T05:08:55;102896.66;;;22.83
75049;BMP280;63803;53.120;8.764;2023-02-15T05:11:20;102884.91;;;22.82
75049;BMP280;63803;53.120;8.764;2023-02-15T05:13:46;102886.22;;;22.81
75049;BMP280;63803;53.120;8.764;2023-02-15T05:16:11;102882.75;;;22.81
75049;BMP280;63803;53.120;8.764;2023-02-15T05:18:37;102884.78;;;22.80
75049;BMP280;63803;53.120;8.764;2023-02-15T05:21:02;102891.03;;;22.81
75049;BMP280;63803;53.120;8.764;2023-02-15T05:23:28;102888.16;;;22.79
75049;BMP280;63803;53.120;8.764;2023-02-15T05:25:53;102892.34;;;22.80
75049;BMP280;63803;53.120;8.764;2023-02-15T05:28:38;102871.81;;;22.83
75049;BMP280;63803;53.120;8.764;2023-02-15T05:31:21;102871.69;;;22.81
75049;BMP280;63803;53.120;8.764;2023-02-15T05:33:47;102878.66;;;22.82
75049;BMP280;63803;53.120;8.764;2023-02-15T05:36:15;102866.88;;;22.81
75049;BMP280;63803;53.120;8.764;2023-02-15T05:38:40;102873.13;;;22.82
75049;BMP280;63803;53.120;8.764;2023-02-15T05:41:07;102875.91;;;22.82
75049;BMP280;63803;53.120;8.764;2023-02-15T05:43:33;102870.38;;;22.82
75049;BMP280;63803;53.120;8.764;2023-02-15T05:45:59;102867.59;;;22.82
75049;BMP280;63803;53.120;8.764;2023-02-15T05:48:26;102867.47;;;22.80
75049;BMP280;63803;53.120;8.764;2023-02-15T05:51:07;102857.88;;;22.81
75049;BMP280;63803;53.120;8.764;2023-02-15T05:53:37;102857.13;;;22.80
75049;BMP280;63803;53.120;8.764;2023-02-15T05:56:04;102848.13;;;22.80
75049;BMP280;63803;53.120;8.764;2023-02-15T05:58:31;102855.13;;;22.81
75049;BMP280;63803;53.120;8.764;2023-02-15T06:00:57;102849.59;;;22.81
75049;BMP280;63803;53.120;8.764;2023-02-15T06:03:24;102850.19;;;22.79
75049;BMP280;63803;53.120;8.764;2023-02-15T06:05:51;102853.66;;;22.80
75049;BMP280;63803;53.120;8.764;2023-02-15T06:08:17;102845.94;;;22.78
75049;BMP280;63803;53.120;8.764;2023-02-15T06:10:43;102860.66;;;22.81
75049;BMP280;63803;53.120;8.764;2023-02-15T06:13:10;102855.13;;;22.81
75049;BMP280;63803;53.120;8.764;2023-02-15T06:15:35;102855.13;;;22.81
75049;BMP280;63803;53.120;8.764;2023-02-15T06:18:01;102851.03;;;22.82
75049;BMP280;63803;53.120;8.764;2023-02-15T06:20:27;102850.31;;;22.81
75049;BMP280;63803;53.120;8.764;2023-02-15T06:22:53;102851.03;;;22.82
75049;BMP280;63803;53.120;8.764;2023-02-15T06:25:18;102851.75;;;22.82
75049;BMP280;63803;53.120;8.764;2023-02-15T06:27:43;102846.44;;;22.86
75049;BMP280;63803;53.120;8.764;2023-02-15T06:30:10;102850.56;;;22.73
75049;BMP280;63803;53.120;8.764;2023-02-15T06:32:35;102848.63;;;22.41
75049;BMP280;63803;53.120;8.764;2023-02-15T06:35:01;102856.03;;;22.26
75049;BMP280;63803;53.120;8.764;2023-02-15T06:37:27;102852.19;;;22.32
75049;BMP280;63803;53.120;8.764;2023-02-15T06:39:52;102846.09;;;22.45
75049;BMP280;63803;53.120;8.764;2023-02-15T06:42:17;102847.91;;;22.52
75049;BMP280;63803;53.120;8.764;2023-02-15T06:44:44;102853.06;;;22.58
75049;BMP280;63803;53.120;8.764;2023-02-15T06:47:09;102842.88;;;22.60
75049;BMP280;63803;53.120;8.764;2023-02-15T06:49:35;102847.16;;;22.63
75049;BMP280;63803;53.120;8.764;2023-02-15T06:52:01;102852.94;;;22.67
75049;BMP280;63803;53.120;8.764;2023-02-15T06:54:26;102847.56;;;22.69
75049;BMP280;63803;53.120;8.764;2023-02-15T06:56:51;102851.16;;;22.72
75049;BMP280;63803;53.120;8.764;2023-02-15T06:59:17;102851.88;;;22.72
75049;BMP280;63803;53.120;8.764;2023-02-15T07:01:42;102845.03;;;22.73
75049;BMP280;63803;53.120;8.764;2023-02-15T07:04:09;102845.13;;;22.75
75049;BMP280;63803;53.120;8.764;2023-02-15T07:06:34;102847.31;;;22.77
75049;BMP280;63803;53.120;8.764;2023-02-15T07:09:00;102844.56;;;22.77
75049;BMP280;63803;53.120;8.764;2023-02-15T07:11:25;102846.69;;;22.79
75049;BMP280;63803;53.120;8.764;2023-02-15T07:14:09;102829.38;;;22.78
75049;BMP280;63803;53.120;8.764;2023-02-15T07:16:35;102840.56;;;22.80
75049;BMP280;63803;53.120;8.764;2023-02-15T07:19:00;102833.72;;;22.81
75049;BMP280;63803;53.120;8.764;2023-02-15T07:21:25;102844.06;;;22.81
75049;BMP280;63803;53.120;8.764;2023-02-15T07:23:51;102838.53;;;22.81
75049;BMP280;63803;53.120;8.764;2023-02-15T07:26:16;102837.91;;;22.82
75049;BMP280;63803;53.120;8.764;2023-02-15T07:28:42;102838.63;;;22.83
75049;BMP280;63803;53.120;8.764;2023-02-15T07:31:07;102832.53;;;22.84
75049;BMP280;63803;53.120;8.764;2023-02-15T07:33:34;102828.44;;;22.85
75049;BMP280;63803;53.120;8.764;2023-02-15T07:36:03;102823.59;;;22.86
75049;BMP280;63803;53.120;8.764;2023-02-15T07:38:34;102824.94;;;22.85
75049;BMP280;63803;53.120;8.764;2023-02-15T07:41:01;102822.19;;;22.85
75049;BMP280;63803;53.120;8.764;2023-02-15T07:43:27;102815.19;;;22.84
75049;BMP280;63803;53.120;8.764;2023-02-15T07:45:53;102815.19;;;22.84
75049;BMP280;63803;53.120;8.764;2023-02-15T07:48:18;102808.38;;;22.85
75049;BMP280;63803;53.120;8.764;2023-02-15T07:50:43;102809.78;;;22.86
75049;BMP280;63803;53.120;8.764;2023-02-15T07:53:09;102802.13;;;22.84
75049;BMP280;63803;53.120;8.764;2023-02-15T07:55:34;102804.88;;;22.84
75049;BMP280;63803;53.120;8.764;2023-02-15T07:58:00;102812.53;;;22.86
75049;BMP280;63803;53.120;8.764;2023-02-15T08:00:26;102807.78;;;22.63
75049;BMP280;63803;53.120;8.764;2023-02-15T08:02:55;102798.09;;;22.38
75049;BMP280;63803;53.120;8.764;2023-02-15T08:05:44;102801.81;;;22.19
75049;BMP280;63803;53.120;8.764;2023-02-15T08:08:11;102801.88;;;22.10
75049;BMP280;63803;53.120;8.764;2023-02-15T08:13:56;102801.69;;;21.84
75049;BMP280;63803;53.120;8.764;2023-02-15T08:18:54;102803.09;;;22.18
75049;BMP280;63803;53.120;8.764;2023-02-15T08:21:21;102801.56;;;22.39
75049;BMP280;63803;53.120;8.764;2023-02-15T08:23:47;102802.03;;;22.47
75049;BMP280;63803;53.120;8.764;2023-02-15T08:26:12;102803.13;;;22.53
75049;BMP280;63803;53.120;8.764;2023-02-15T08:28:39;102797.34;;;22.61
75049;BMP280;63803;53.120;8.764;2023-02-15T08:31:09;102801.66;;;22.64
75049;BMP280;63803;53.120;8.764;2023-02-15T08:33:36;102801.31;;;22.70
75049;BMP280;63803;53.120;8.764;2023-02-15T08:36:07;102801.41;;;22.72
75049;BMP280;63803;53.120;8.764;2023-02-15T08:38:33;102808.13;;;22.69
75049;BMP280;63803;53.120;8.764;2023-02-15T08:41:22;102799.38;;;22.72
75049;BMP280;63803;53.120;8.764;2023-02-15T08:43:49;102792.75;;;22.77
75049;BMP280;63803;53.120;8.764;2023-02-15T08:46:17;102794.31;;;22.81
75049;BMP280;63803;53.120;8.764;2023-02-15T08:48:43;102791.66;;;22.83
75049;BMP280;63803;53.120;8.764;2023-02-15T08:51:13;102791.16;;;22.86
75049;BMP280;63803;53.120;8.764;2023-02-15T08:53:43;102788.53;;;22.88
75049;BMP280;63803;53.120;8.764;2023-02-15T08:56:09;102786.50;;;22.89
75049;BMP280;63803;53.120;8.764;2023-02-15T08:58:35;102786.59;;;22.91
75049;BMP280;63803;53.120;8.764;2023-02-15T09:01:07;102775.53;;;22.91
75049;BMP280;63803;53.120;8.764;2023-02-15T09:03:32;102775.75;;;22.95
75049;BMP280;63803;53.120;8.764;2023-02-15T09:05:59;102774.44;;;22.96
75049;BMP280;63803;53.120;8.764;2023-02-15T09:08:26;102774.56;;;22.98
75049;BMP280;63803;53.120;8.764;2023-02-15T09:10:51;102773.25;;;22.99
75049;BMP280;63803;53.120;8.764;2023-02-15T09:13:16;102769.25;;;23.02
75049;BMP280;63803;53.120;8.764;2023-02-15T09:15:42;102767.22;;;23.03
75049;BMP280;63803;53.120;8.764;2023-02-15T09:18:07;102758.94;;;23.03
75049;BMP280;63803;53.120;8.764;2023-02-15T09:20:35;102764.47;;;23.03
75049;BMP280;63803;53.120;8.764;2023-02-15T09:23:01;102756.97;;;23.05
75049;BMP280;63803;53.120;8.764;2023-02-15T09:25:27;102759.88;;;23.07
75049;BMP280;63803;53.120;8.764;2023-02-15T09:27:52;102756.50;;;23.09
75049;BMP280;63803;53.120;8.764;2023-02-15T09:30:18;102762.22;;;23.13
75049;BMP280;63803;53.120;8.764;2023-02-15T09:32:43;102758.16;;;23.14
75049;BMP280;63803;53.120;8.764;2023-02-15T09:35:11;102755.41;;;23.14
75049;BMP280;63803;53.120;8.764;2023-02-15T09:37:37;102769.22;;;23.14
75049;BMP280;63803;53.120;8.764;2023-02-15T09:40:03;102767.75;;;23.13
75049;BMP280;63803;53.120;8.764;2023-02-15T09:45:25;102768.47;;;23.13
75049;BMP280;63803;53.120;8.764;2023-02-15T10:25:31;102761.91;;;23.07
75049;BMP280;63803;53.120;8.764;2023-02-15T10:28:06;102757.09;;;23.07
75049;BMP280;63803;53.120;8.764;2023-02-15T10:30:48;102747.38;;;23.06
75049;BMP280;63803;53.120;8.764;2023-02-15T10:36:27;102748.69;;;23.05
75049;BMP280;63803;53.120;8.764;2023-02-15T10:39:05;102750.72;;;23.05
75049;BMP280;63803;53.120;8.764;2023-02-15T10:41:52;102754.22;;;23.05
75049;BMP280;63803;53.120;8.764;2023-02-15T10:44:24;102747.97;;;23.05
75049;BMP280;63803;53.120;8.764;2023-02-15T10:47:21;102737.03;;;23.07
75049;BMP280;63803;53.120;8.764;2023-02-15T10:55:55;102746.03;;;23.07
75049;BMP280;63803;53.120;8.764;2023-02-15T11:07:03;102730.91;;;23.08
75049;BMP280;63803;53.120;8.764;2023-02-15T11:09:37;102732.22;;;23.07
75049;BMP280;63803;53.120;8.764;2023-02-15T11:12:09;102726.69;;;23.07
75049;BMP280;63803;53.120;8.764;2023-02-15T11:17:12;102726.78;;;23.09
75049;BMP280;63803;53.120;8.764;2023-02-15T11:22:32;102714.22;;;23.06
75049;BMP280;63803;53.120;8.764;2023-02-15T11:24:59;102717.78;;;23.09
75049;BMP280;63803;53.120;8.764;2023-02-15T11:27:31;102715.63;;;23.07
75049;BMP280;63803;53.120;8.764;2023-02-15T11:30:12;102717.09;;;23.08
75049;BMP280;63803;53.120;8.764;2023-02-15T11:32:40;102703.28;;;23.08
75049;BMP280;63803;53.120;8.764;2023-02-15T11:35:27;102699.06;;;23.07
75049;BMP280;63803;53.120;8.764;2023-02-15T11:38:17;102698.34;;;23.07
75049;BMP280;63803;53.120;8.764;2023-02-15T11:40:47;102693.53;;;23.07
75049;BMP280;63803;53.120;8.764;2023-02-15T11:43:23;102695.44;;;23.05
75049;BMP280;63803;53.120;8.764;2023-02-15T11:45:49;102684.88;;;23.01
75049;BMP280;63803;53.120;8.764;2023-02-15T11:48:15;102689.00;;;23.00
75049;BMP280;63803;53.120;8.764;2023-02-15T11:50:42;102691.63;;;22.98
75049;BMP280;63803;53.120;8.764;2023-02-15T11:53:16;102688.06;;;22.95
75049;BMP280;63803;53.120;8.764;2023-02-15T11:55:44;102684.53;;;22.95
75049;BMP280;63803;53.120;8.764;2023-02-15T12:00:52;102670.00;;;22.94
75049;BMP280;63803;53.120;8.764;2023-02-15T12:06:15;102665.81;;;22.93
75049;BMP280;63803;53.120;8.764;2023-02-15T12:08:45;102659.47;;;22.91
75049;BMP280;63803;53.120;8.764;2023-02-15T12:11:25;102653.84;;;22.89
75049;BMP280;63803;53.120;8.764;2023-02-15T12:13:56;102652.41;;;22.88
75049;BMP280;63803;53.120;8.764;2023-02-15T12:16:22;102649.03;;;22.89
75049;BMP280;63803;53.120;8.764;2023-02-15T12:18:48;102658.66;;;22.88
75049;BMP280;63803;53.120;8.764;2023-02-15T12:21:31;102642.66;;;22.87
75049;BMP280;63803;53.120;8.764;2023-02-15T12:24:17;102641.19;;;22.86
75049;BMP280;63803;53.120;8.764;2023-02-15T12:26:43;102639.09;;;22.84
75049;BMP280;63803;53.120;8.764;2023-02-15T12:29:16;102635.47;;;22.82
75049;BMP280;63803;53.120;8.764;2023-02-15T12:31:46;102633.44;;;22.82
75049;BMP280;63803;53.120;8.764;2023-02-15T12:34:22;102636.81;;;22.81
75049;BMP280;63803;53.120;8.764;2023-02-15T12:36:51;102634.06;;;22.81
75049;BMP280;63803;53.120;8.764;2023-02-15T12:39:20;102620.09;;;22.79
75049;BMP280;63803;53.120;8.764;2023-02-15T12:41:59;102620.09;;;22.79
75049;BMP280;63803;53.120;8.764;2023-02-15T12:44:31;102611.72;;;22.76
75049;BMP280;63803;53.120;8.764;2023-02-15T12:47:06;102608.31;;;22.78
75049;BMP280;63803;53.120;8.764;2023-02-15T12:49:43;102614.50;;;22.76
75049;BMP280;63803;53.120;8.764;2023-02-15T12:52:29;102607.63;;;22.77
75049;BMP280;63803;53.120;8.764;2023-02-15T12:54:54;102608.97;;;22.76
75049;BMP280;63803;53.120;8.764;2023-02-15T12:57:27;102607.63;;;22.77
75049;BMP280;63803;53.120;8.764;2023-02-15T12:59:55;102605.56;;;22.78
75049;BMP280;63803;53.120;8.764;2023-02-15T13:07:45;102599.94;;;22.76
75049;BMP280;63803;53.120;8.764;2023-02-15T13:10:29;102595.16;;;22.76
75049;BMP280;63803;53.120;8.764;2023-02-15T13:12:58;102589.63;;;22.76
75049;BMP280;63803;53.120;8.764;2023-02-15T13:15:37;102593.69;;;22.75
75049;BMP280;63803;53.120;8.764;2023-02-15T13:18:05;102587.44;;;22.75
75049;BMP280;63803;53.120;8.764;2023-02-15T13:20:36;102588.16;;;22.75
75049;BMP280;63803;53.120;8.764;2023-02-15T13:23:13;102594.41;;;22.76
75049;BMP280;63803;53.120;8.764;2023-02-15T13:25:45;102584.09;;;22.76
75049;BMP280;63803;53.120;8.764;2023-02-15T13:28:16;102584.09;;;22.76
75049;BMP280;63803;53.120;8.764;2023-02-15T13:30:45;102582.75;;;22.77
75049;BMP280;63803;53.120;8.764;2023-02-15T13:33:17;102575.81;;;22.76
75049;BMP280;63803;53.120;8.764;2023-02-15T13:41:09;102567.53;;;22.76
75049;BMP280;63803;53.120;8.764;2023-02-15T13:43:52;102562.00;;;22.76
75049;BMP280;63803;53.120;8.764;2023-02-15T13:49:43;102558.50;;;22.76
75049;BMP280;63803;53.120;8.764;2023-02-15T14:01:10;102543.25;;;22.75
75049;BMP280;63803;53.120;8.764;2023-02-15T14:07:00;102550.78;;;22.74
75049;BMP280;63803;53.120;8.764;2023-02-15T14:12:26;102543.88;;;22.73
75049;BMP280;63803;53.120;8.764;2023-02-15T14:15:47;102542.41;;;22.72
75049;BMP280;63803;53.120;8.764;2023-02-15T14:20:51;102538.94;;;22.72
75049;BMP280;63803;53.120;8.764;2023-02-15T14:31:44;102532.69;;;22.71
75049;BMP280;63803;53.120;8.764;2023-02-15T14:34:20;102531.25;;;22.70
75049;BMP280;63803;53.120;8.764;2023-02-15T14:36:47;102534.00;;;22.70
75049;BMP280;63803;53.120;8.764;2023-02-15T14:39:41;102528.47;;;22.70
75049;BMP280;63803;53.120;8.764;2023-02-15T14:42:39;102518.78;;;22.69
75049;BMP280;63803;53.120;8.764;2023-02-15T14:47:41;102526.22;;;22.67
75049;BMP280;63803;53.120;8.764;2023-02-15T14:55:45;102533.19;;;22.68
75049;BMP280;63803;53.120;8.764;2023-02-15T14:58:12;102536.66;;;22.68
75049;BMP280;63803;53.120;8.764;2023-02-15T15:00:39;102535.97;;;22.68
75049;BMP280;63803;53.120;8.764;2023-02-15T15:03:23;102533.91;;;22.68
75049;BMP280;63803;53.120;8.764;2023-02-15T15:05:52;102531.06;;;22.66
75049;BMP280;63803;53.120;8.764;2023-02-15T15:08:38;102526.84;;;22.65
75049;BMP280;63803;53.120;8.764;2023-02-15T15:13:59;102523.38;;;22.65
75049;BMP280;63803;53.120;8.764;2023-02-15T15:19:12;102517.25;;;22.66
75049;BMP280;63803;53.120;8.764;2023-02-15T15:21:53;102504.03;;;22.65
75049;BMP280;63803;53.120;8.764;2023-02-15T15:27:39;102489.50;;;22.64
75049;BMP280;63803;53.120;8.764;2023-02-15T15:49:01;102469.22;;;22.60
75049;BMP280;63803;53.120;8.764;2023-02-15T15:51:30;102477.63;;;22.62
75049;BMP280;63803;53.120;8.764;2023-02-15T15:53:56;102476.19;;;22.61
75049;BMP280;63803;53.120;8.764;2023-02-15T15:56:31;102474.13;;;22.61
75049;BMP280;63803;53.120;8.764;2023-02-15T15:59:01;102471.25;;;22.59
75049;BMP280;63803;53.120;8.764;2023-02-15T16:01:31;102471.25;;;22.59
75049;BMP280;63803;53.120;8.764;2023-02-15T16:04:00;102466.44;;;22.60
75049;BMP280;63803;53.120;8.764;2023-02-15T16:06:31;102465.72;;;22.59
75049;BMP280;63803;53.120;8.764;2023-02-15T16:09:09;102458.16;;;22.60
75049;BMP280;63803;53.120;8.764;2023-02-15T16:11:35;102459.50;;;22.59
75049;BMP280;63803;53.120;8.764;2023-02-15T16:14:10;102448.44;;;22.59
75049;BMP280;63803;53.120;8.764;2023-02-15T16:16:37;102454.69;;;22.59
75049;BMP280;63803;53.120;8.764;2023-02-15T16:19:02;102447.75;;;22.58
75049;BMP280;63803;53.120;8.764;2023-02-15T16:21:34;102453.28;;;22.58
75049;BMP280;63803;53.120;8.764;2023-02-15T16:24:34;102453.28;;;22.58
75049;BMP280;63803;53.120;8.764;2023-02-15T16:29:34;102435.25;;;22.57
75049;BMP280;63803;53.120;8.764;2023-02-15T16:32:24;102444.25;;;22.58
75049;BMP280;63803;53.120;8.764;2023-02-15T16:34:51;102449.06;;;22.57
75049;BMP280;63803;53.120;8.764;2023-02-15T16:37:19;102453.13;;;22.56
75049;BMP280;63803;53.120;8.764;2023-02-15T16:39:47;102460.13;;;22.57
75049;BMP280;63803;53.120;8.764;2023-02-15T16:42:16;102456.66;;;22.57
75049;BMP280;63803;53.120;8.764;2023-02-15T16:44:46;102455.91;;;22.56
75049;BMP280;63803;53.120;8.764;2023-02-15T16:47:27;102455.19;;;22.56
75049;BMP280;63803;53.120;8.764;2023-02-15T16:49:57;102460.00;;;22.55
75049;BMP280;63803;53.120;8.764;2023-02-15T16:52:24;102468.41;;;22.57
75049;BMP280;63803;53.120;8.764;2023-02-15T16:54:54;102457.84;;;22.53
75049;BMP280;63803;53.120;8.764;2023-02-15T16:57:24;102460.00;;;22.55
75049;BMP280;63803;53.120;8.764;2023-02-15T16:59:52;102462.75;;;22.55
75049;BMP280;63803;53.120;8.764;2023-02-15T17:02:25;102466.94;;;22.56
75049;BMP280;63803;53.120;8.764;2023-02-15T17:05:13;102465.53;;;22.55
75049;BMP280;63803;53.120;8.764;2023-02-15T17:07:48;102463.59;;;22.58
75049;BMP280;63803;53.120;8.764;2023-02-15T17:10:34;102458.66;;;22.56
75049;BMP280;63803;53.120;8.764;2023-02-15T17:13:16;102460.63;;;22.53
75049;BMP280;63803;53.120;8.764;2023-02-15T17:15:44;102462.75;;;22.55
75049;BMP280;63803;53.120;8.764;2023-02-15T17:18:21;102452.44;;;22.56